createdAt,value
2023-04-21T00:01:52.738Z,9.80
2023-04-21T00:04:22.248Z,8.20
2023-04-21T00:06:52.720Z,6.70
2023-04-21T00:09:22.122Z,8.00
2023-04-21T00:11:52.812Z,6.50
2023-04-21T00:14:22.262Z,7.30
2023-04-21T00:16:52.854Z,8.50
2023-04-21T00:19:23.384Z,8.80
2023-04-21T00:21:58.048Z,9.50
2023-04-21T00:24:27.570Z,9.10
2023-04-21T00:26:56.802Z,8.90
2023-04-21T00:29:25.945Z,9.10
2023-04-21T00:31:55.292Z,11.20
2023-04-21T00:34:24.668Z,11.10
2023-04-21T00:36:53.955Z,7.90
2023-04-21T00:39:23.613Z,9.30
2023-04-21T00:41:53.986Z,12.20
2023-04-21T00:44:23.602Z,9.10
2023-04-21T00:46:53.111Z,7.70
2023-04-21T00:49:25.576Z,8.50
2023-04-21T00:51:55.766Z,7.40
2023-04-21T00:54:25.818Z,10.80
2023-04-21T00:56:57.903Z,9.60
2023-04-21T00:59:27.225Z,7.90
2023-04-21T01:01:56.648Z,11.50
2023-04-21T01:04:26.779Z,8.40
2023-04-21T01:06:56.213Z,9.40
2023-04-21T01:09:26.512Z,13.80
2023-04-21T01:12:06.640Z,9.70
2023-04-21T01:14:36.612Z,7.70
2023-04-21T01:17:07.243Z,8.30
2023-04-21T01:19:39.490Z,8.50
2023-04-21T01:22:11.244Z,8.10
2023-04-21T01:24:41.599Z,9.70
2023-04-21T01:27:12.054Z,8.90
2023-04-21T01:29:42.931Z,10.30
2023-04-21T01:32:15.283Z,8.80
2023-04-21T01:34:45.239Z,8.60
2023-04-21T01:37:16.761Z,11.10
2023-04-21T01:39:52.764Z,9.90
2023-04-21T01:42:24.725Z,9.60
2023-04-21T01:44:55.899Z,11.80
2023-04-21T01:47:27.285Z,9.80
2023-04-21T01:49:56.645Z,9.90
2023-04-21T01:52:27.266Z,8.20
2023-04-21T01:54:56.669Z,8.50
2023-04-21T01:57:26.334Z,11.50
2023-04-21T01:59:57.064Z,8.90
2023-04-21T02:02:26.947Z,8.90
2023-04-21T02:04:57.111Z,9.20
2023-04-21T02:07:27.982Z,10.10
2023-04-21T02:09:57.335Z,9.80
2023-04-21T02:12:28.013Z,8.20
2023-04-21T02:14:57.276Z,10.20
2023-04-21T02:17:27.255Z,11.30
2023-04-21T02:19:57.414Z,11.60
2023-04-21T02:22:27.674Z,10.90
2023-04-21T02:24:57.580Z,12.40
2023-04-21T02:27:27.702Z,14.30
2023-04-21T02:29:58.138Z,9.30
2023-04-21T02:32:28.942Z,10.90
2023-04-21T02:34:58.241Z,11.00
2023-04-21T02:37:28.917Z,10.10
2023-04-21T02:39:58.243Z,11.00
2023-04-21T02:42:28.183Z,10.20
2023-04-21T02:44:58.452Z,9.40
2023-04-21T02:47:28.574Z,9.80
2023-04-21T02:49:58.799Z,9.50
2023-04-21T02:52:28.909Z,10.80
2023-04-21T02:54:59.123Z,9.20
2023-04-21T02:57:31.353Z,10.10
2023-04-21T03:00:00.753Z,9.60
2023-04-21T03:02:30.868Z,9.60
2023-04-21T03:05:00.266Z,9.20
2023-04-21T03:07:29.826Z,10.20
2023-04-21T03:09:59.787Z,11.70
2023-04-21T03:12:30.140Z,10.10
2023-04-21T03:15:00.116Z,9.70
2023-04-21T03:17:32.925Z,9.00
2023-04-21T03:20:06.372Z,10.10
2023-04-21T03:22:35.779Z,12.80
2023-04-21T03:25:06.881Z,11.20
2023-04-21T03:27:36.521Z,9.30
2023-04-21T03:30:13.141Z,11.40
2023-04-21T03:32:43.160Z,9.60
2023-04-21T03:35:14.973Z,9.80
2023-04-21T03:37:44.496Z,11.50
2023-04-21T03:40:13.678Z,10.00
2023-04-21T03:42:43.030Z,13.10
2023-04-21T03:45:13.077Z,11.50
2023-04-21T03:47:42.539Z,10.20
2023-04-21T03:50:11.956Z,10.70
2023-04-21T03:52:41.569Z,10.80
2023-04-21T03:55:11.137Z,10.30
2023-04-21T03:57:41.199Z,12.60
2023-04-21T04:00:13.068Z,14.80
2023-04-21T04:02:43.547Z,13.40
2023-04-21T04:05:12.989Z,8.90
2023-04-21T04:07:42.445Z,9.60
2023-04-21T04:10:11.799Z,10.10
2023-04-21T04:12:40.946Z,13.90
2023-04-21T04:15:13.867Z,13.70
2023-04-21T04:17:43.269Z,12.00
2023-04-21T04:20:12.609Z,12.90
2023-04-21T04:22:41.842Z,12.20
2023-04-21T04:25:12.408Z,12.60
2023-04-21T04:27:41.559Z,10.80
2023-04-21T04:30:12.032Z,15.30
2023-04-21T04:32:41.550Z,12.10
2023-04-21T04:35:13.147Z,13.70
2023-04-21T04:37:42.372Z,12.60
2023-04-21T04:40:12.918Z,14.30
2023-04-21T04:42:42.491Z,12.90
2023-04-21T04:45:13.406Z,11.60
2023-04-21T04:47:42.993Z,14.10
2023-04-21T04:50:12.569Z,15.10
2023-04-21T04:52:41.890Z,15.40
2023-04-21T04:55:11.177Z,15.70
2023-04-21T04:57:40.532Z,15.70
2023-04-21T05:00:14.026Z,15.10
2023-04-21T05:02:43.828Z,13.50
2023-04-21T05:05:13.413Z,14.70
2023-04-21T05:07:42.864Z,13.70
2023-04-21T05:10:12.577Z,15.00
2023-04-21T05:12:41.796Z,17.90
2023-04-21T05:15:12.002Z,16.80
2023-04-21T05:17:41.522Z,22.20
2023-04-21T05:20:13.458Z,19.80
2023-04-21T05:23:17.391Z,15.70
2023-04-21T05:25:47.055Z,17.40
2023-04-21T05:28:16.837Z,17.50
2023-04-21T05:30:46.093Z,16.10
2023-04-21T05:33:18.015Z,17.40
2023-04-21T05:35:47.360Z,20.90
2023-04-21T05:38:17.690Z,19.00
2023-04-21T05:40:55.067Z,16.30
2023-04-21T05:43:24.682Z,16.30
2023-04-21T05:45:54.244Z,19.50
2023-04-21T05:48:23.992Z,18.40
2023-04-21T05:50:53.831Z,15.70
2023-04-21T05:53:23.948Z,15.80
2023-04-21T05:55:57.671Z,15.10
2023-04-21T05:58:28.134Z,21.50
2023-04-21T06:01:00.400Z,16.00
2023-04-21T06:03:31.957Z,16.90
2023-04-21T06:06:02.886Z,17.00
2023-04-21T06:08:35.502Z,15.70
2023-04-21T06:11:06.633Z,15.90
2023-04-21T06:13:38.558Z,13.70
2023-04-21T06:16:11.423Z,14.20
2023-04-21T06:18:47.825Z,14.20
2023-04-21T06:21:17.224Z,12.80
2023-04-21T06:23:57.189Z,18.70
2023-04-21T06:26:27.664Z,14.20
2023-04-21T06:28:58.482Z,14.50
2023-04-21T06:31:28.252Z,12.20
2023-04-21T06:33:57.608Z,10.30
2023-04-21T06:36:28.450Z,12.50
2023-04-21T06:38:57.890Z,10.10
2023-04-21T06:41:28.443Z,8.70
2023-04-21T06:44:01.774Z,9.90
2023-04-21T06:46:34.361Z,8.80
2023-04-21T06:49:04.713Z,10.30
2023-04-21T06:51:34.527Z,11.10
2023-04-21T06:54:05.017Z,9.30
2023-04-21T06:56:37.496Z,9.10
2023-04-21T06:59:10.563Z,10.50
2023-04-21T07:01:42.860Z,7.60
2023-04-21T07:04:12.054Z,7.00
2023-04-21T07:06:43.050Z,8.90
2023-04-21T07:09:13.060Z,11.00
2023-04-21T07:11:42.513Z,7.90
2023-04-21T07:14:11.740Z,7.60
2023-04-21T07:16:41.576Z,9.50
2023-04-21T07:19:11.293Z,6.80
2023-04-21T07:21:42.551Z,6.80
2023-04-21T07:24:11.924Z,4.90
2023-04-21T07:26:42.405Z,6.00
2023-04-21T07:29:12.071Z,7.00
2023-04-21T07:31:43.154Z,7.30
2023-04-21T07:34:15.240Z,6.00
2023-04-21T07:36:44.593Z,6.90
2023-04-21T07:39:13.864Z,10.50
2023-04-21T07:41:47.452Z,7.70
2023-04-21T07:44:17.470Z,5.50
2023-04-21T07:46:46.816Z,7.50
2023-04-21T07:49:16.697Z,8.00
2023-04-21T07:51:46.278Z,6.30
2023-04-21T07:54:15.909Z,7.40
2023-04-21T07:56:45.508Z,5.70
2023-04-21T07:59:14.913Z,9.20
2023-04-21T08:01:44.227Z,7.10
2023-04-21T08:04:13.638Z,8.60
2023-04-21T08:06:45.811Z,7.40
2023-04-21T08:09:15.672Z,9.70
2023-04-21T08:11:47.995Z,8.60
2023-04-21T08:14:17.726Z,9.70
2023-04-21T08:16:51.499Z,8.20
2023-04-21T08:19:24.354Z,11.40
2023-04-21T08:21:58.844Z,9.50
2023-04-21T08:24:30.881Z,9.50
2023-04-21T08:27:02.410Z,7.60
2023-04-21T08:29:32.433Z,13.80
2023-04-21T08:32:02.108Z,6.60
2023-04-21T08:34:32.789Z,7.30
2023-04-21T08:37:04.768Z,12.70
2023-04-21T08:39:38.641Z,9.40
2023-04-21T08:42:15.394Z,8.60
2023-04-21T08:44:48.108Z,7.00
2023-04-21T08:47:25.705Z,11.30
2023-04-21T08:49:59.132Z,8.60
2023-04-21T08:52:28.497Z,8.80
2023-04-21T08:55:01.783Z,8.90
2023-04-21T08:57:31.109Z,11.60
2023-04-21T09:00:00.390Z,7.70
2023-04-21T09:03:01.473Z,8.40
2023-04-21T09:05:33.039Z,7.60
2023-04-21T09:08:16.351Z,7.90
2023-04-21T09:10:47.918Z,9.10
2023-04-21T09:13:22.667Z,6.80
2023-04-21T09:15:52.761Z,7.30
2023-04-21T09:18:24.502Z,7.90
2023-04-21T09:21:10.177Z,9.10
2023-04-21T09:23:52.858Z,9.00
2023-04-21T09:26:23.247Z,12.50
2023-04-21T09:28:54.068Z,9.40
2023-04-21T09:31:24.724Z,8.90
2023-04-21T09:33:59.657Z,9.40
2023-04-21T09:36:33.715Z,11.50
2023-04-21T09:41:46.844Z,11.20
2023-04-21T09:44:17.142Z,7.50
2023-04-21T09:46:50.542Z,7.70
2023-04-21T09:49:27.385Z,7.60
2023-04-21T09:52:17.646Z,9.80
2023-04-21T09:54:56.240Z,9.50
2023-04-21T09:57:30.505Z,8.40
2023-04-21T10:00:04.874Z,9.20
2023-04-21T10:02:37.383Z,10.80
2023-04-21T10:05:13.650Z,7.70
2023-04-21T10:07:49.988Z,7.00
2023-04-21T10:10:23.600Z,8.50
2023-04-21T10:12:53.666Z,9.00
2023-04-21T10:15:32.937Z,8.70
2023-04-21T10:18:20.570Z,8.60
2023-04-21T10:21:00.018Z,11.50
2023-04-21T10:23:38.497Z,8.20
2023-04-21T10:26:12.080Z,7.80
2023-04-21T10:28:46.933Z,9.90
2023-04-21T10:31:29.901Z,10.20
2023-04-21T10:34:25.355Z,10.20
2023-04-21T10:37:15.675Z,12.30
2023-04-21T10:39:54.893Z,10.70
2023-04-21T10:42:34.593Z,7.30
2023-04-21T10:45:16.499Z,10.90
2023-04-21T10:47:56.227Z,9.80
2023-04-21T10:50:30.799Z,9.50
2023-04-21T10:53:12.332Z,8.20
2023-04-21T10:55:49.150Z,8.20
2023-04-21T10:58:25.376Z,8.10
2023-04-21T11:00:59.288Z,10.10
2023-04-21T11:03:35.623Z,10.40
2023-04-21T11:06:18.069Z,7.40
2023-04-21T11:09:03.195Z,13.30
2023-04-21T11:11:32.639Z,9.20
2023-04-21T11:14:07.236Z,10.20
2023-04-21T11:16:37.750Z,9.10
2023-04-21T11:19:07.894Z,13.40
2023-04-21T11:21:37.449Z,8.10
2023-04-21T11:24:13.828Z,8.60
2023-04-21T11:26:44.653Z,8.40
2023-04-21T11:29:15.481Z,7.90
2023-04-21T11:32:00.654Z,11.40
2023-04-21T11:34:30.460Z,9.70
2023-04-21T11:40:01.691Z,7.50
2023-04-21T11:42:42.407Z,11.50
2023-04-21T11:45:22.808Z,8.60
2023-04-21T11:48:13.750Z,12.00
2023-04-21T11:50:48.521Z,9.60
2023-04-21T11:53:21.306Z,7.90
2023-04-21T11:55:51.243Z,6.90
2023-04-21T11:58:22.177Z,11.90
2023-04-21T12:00:53.041Z,7.70
2023-04-21T12:03:23.802Z,8.60
2023-04-21T12:06:00.646Z,11.50
2023-04-21T12:08:35.286Z,5.70
2023-04-21T12:11:07.786Z,7.50
2023-04-21T12:13:47.047Z,10.00
2023-04-21T12:16:16.841Z,10.80
2023-04-21T12:18:47.930Z,7.10
2023-04-21T12:21:17.721Z,11.50
2023-04-21T12:23:47.467Z,10.10
2023-04-21T12:26:16.983Z,8.10
2023-04-21T12:28:48.405Z,7.40
2023-04-21T12:31:20.979Z,9.70
2023-04-21T12:33:51.754Z,9.50
2023-04-21T12:36:21.745Z,9.00
2023-04-21T12:38:56.317Z,11.00
2023-04-21T12:41:25.899Z,10.50
2023-04-21T12:44:00.518Z,10.70
2023-04-21T12:46:32.878Z,9.30
2023-04-21T12:49:10.177Z,8.60
2023-04-21T12:51:41.624Z,6.90
2023-04-21T12:54:11.586Z,11.30
2023-04-21T12:56:42.351Z,8.80
2023-04-21T12:59:14.595Z,8.50
2023-04-21T13:01:45.326Z,8.30
2023-04-21T13:04:16.331Z,7.90
2023-04-21T13:06:48.177Z,8.70
2023-04-21T13:09:18.459Z,6.80
2023-04-21T13:11:48.638Z,9.00
2023-04-21T13:14:19.688Z,11.40
2023-04-21T13:16:49.308Z,10.30
2023-04-21T13:19:19.760Z,6.80
2023-04-21T13:21:52.055Z,10.60
2023-04-21T13:24:25.406Z,7.50
2023-04-21T13:26:54.561Z,7.80
2023-04-21T13:29:28.728Z,7.90
2023-04-21T13:31:58.229Z,8.20
2023-04-21T13:34:28.300Z,9.60
2023-04-21T13:36:57.769Z,7.00
2023-04-21T13:39:27.471Z,9.70
2023-04-21T13:41:57.539Z,11.60
2023-04-21T13:44:27.772Z,8.00
2023-04-21T13:46:57.496Z,9.80
2023-04-21T13:49:28.105Z,11.30
2023-04-21T13:51:57.375Z,9.80
2023-04-21T13:54:27.831Z,5.90
2023-04-21T13:56:58.120Z,9.70
2023-04-21T13:59:29.005Z,10.00
2023-04-21T14:01:58.470Z,13.10
2023-04-21T14:04:28.147Z,10.60
2023-04-21T14:06:57.811Z,10.30
2023-04-21T14:09:27.819Z,8.90
2023-04-21T14:11:57.175Z,8.90
2023-04-21T14:14:37.951Z,8.40
2023-04-21T14:17:09.317Z,10.30
2023-04-21T14:19:39.264Z,8.20
2023-04-21T14:22:11.631Z,8.70
2023-04-21T14:24:46.286Z,8.50
2023-04-21T14:27:15.905Z,8.00
2023-04-21T14:29:45.401Z,6.60
2023-04-21T14:32:15.741Z,7.10
2023-04-21T14:34:47.360Z,9.70
2023-04-21T14:37:17.843Z,7.70
2023-04-21T14:39:50.832Z,8.80
2023-04-21T14:42:23.241Z,6.60
2023-04-21T14:44:54.156Z,8.90
2023-04-21T14:47:32.828Z,9.60
2023-04-21T14:50:03.441Z,12.20
2023-04-21T14:52:34.690Z,7.10
2023-04-21T14:55:12.903Z,8.70
2023-04-21T14:57:44.078Z,9.60
2023-04-21T15:00:17.398Z,10.00
2023-04-21T15:02:48.413Z,8.10
2023-04-21T15:05:23.732Z,8.00
2023-04-21T15:07:58.130Z,10.70
2023-04-21T15:10:31.766Z,9.50
2023-04-21T15:13:04.521Z,11.50
2023-04-21T15:15:34.397Z,9.40
2023-04-21T15:18:05.519Z,11.70
2023-04-21T15:23:47.961Z,9.40
2023-04-21T15:29:55.728Z,10.80
2023-04-21T15:29:55.737Z,8.10
2023-04-21T15:32:26.004Z,8.30
2023-04-21T15:34:58.024Z,8.60
2023-04-21T15:37:27.897Z,9.30
2023-04-21T15:41:00.188Z,8.00
2023-04-21T15:44:17.921Z,9.90
2023-04-21T15:47:38.968Z,8.00
2023-04-21T15:50:52.130Z,9.80
2023-04-21T15:54:03.479Z,11.30
2023-04-21T15:57:02.103Z,11.60
2023-04-21T16:00:24.223Z,10.60
2023-04-21T16:04:39.785Z,11.30
2023-04-21T16:10:31.187Z,8.80
2023-04-21T16:13:57.566Z,12.70
2023-04-21T16:16:54.061Z,14.00
2023-04-21T16:20:03.400Z,13.50
2023-04-21T16:23:03.884Z,14.50
2023-04-21T16:36:05.047Z,14.10
2023-04-21T16:37:55.979Z,12.80
2023-04-21T16:40:36.758Z,12.40
2023-04-21T16:55:04.035Z,14.20
2023-04-21T16:57:51.989Z,18.70
2023-04-21T17:00:22.775Z,13.60
2023-04-21T17:02:53.313Z,13.80
2023-04-21T17:05:28.682Z,15.10
2023-04-21T17:21:59.532Z,15.00
2023-04-21T17:22:13.771Z,15.20
2023-04-21T17:24:33.151Z,15.50
2023-04-21T17:27:14.426Z,11.50
2023-04-21T17:29:43.799Z,14.90
2023-04-21T17:32:19.069Z,12.20
2023-04-21T17:34:51.392Z,11.40
2023-04-21T17:37:22.324Z,12.90
2023-04-21T17:39:54.082Z,12.60
2023-04-21T17:42:33.160Z,13.50
2023-04-21T17:45:16.233Z,14.20
2023-04-21T17:47:46.255Z,16.80
2023-04-21T17:50:20.318Z,16.70
2023-04-21T17:52:51.908Z,15.70
2023-04-21T17:55:26.528Z,13.20
2023-04-21T17:57:57.916Z,13.80
2023-04-21T18:00:28.959Z,16.90
2023-04-21T18:02:58.143Z,17.40
2023-04-21T18:05:30.192Z,14.90
2023-04-21T18:13:44.539Z,16.20
2023-04-21T18:26:38.015Z,18.50
2023-04-21T18:27:57.946Z,15.30
2023-04-21T18:28:28.601Z,14.90
2023-04-21T18:30:28.788Z,15.30
2023-04-21T18:33:01.307Z,13.30
2023-04-21T18:35:34.315Z,13.00
2023-04-21T18:38:07.323Z,13.40
2023-04-21T18:40:37.669Z,15.70
2023-04-21T18:43:07.268Z,12.90
2023-04-21T18:54:09.253Z,8.40
2023-04-21T18:56:32.806Z,13.90
2023-04-21T18:56:47.601Z,12.30
2023-04-21T18:59:17.353Z,12.70
2023-04-21T19:00:40.171Z,11.40
2023-04-21T19:01:54.115Z,13.00
2023-04-21T19:04:26.962Z,13.80
2023-04-21T19:07:01.343Z,19.10
2023-04-21T19:10:00.482Z,11.50
2023-04-21T19:12:30.079Z,12.80
2023-04-21T19:15:08.102Z,15.40
2023-04-21T19:17:56.092Z,18.20
2023-04-21T19:20:25.334Z,10.40
2023-04-21T19:22:54.907Z,11.60
2023-04-21T19:25:25.148Z,10.60
2023-04-21T19:28:03.451Z,10.10
2023-04-21T19:30:33.338Z,11.70
2023-04-21T19:33:04.785Z,13.40
2023-04-21T19:35:34.836Z,13.60
2023-04-21T19:38:04.629Z,13.70
2023-04-21T19:40:36.414Z,13.30
2023-04-21T19:43:08.577Z,12.20
2023-04-21T19:45:38.238Z,12.10
2023-04-21T19:48:08.298Z,12.80
2023-04-21T19:50:40.934Z,14.10
2023-04-21T19:53:14.150Z,13.90
2023-04-21T19:55:48.128Z,16.10
2023-04-21T19:58:38.984Z,18.20
2023-04-21T20:01:10.493Z,15.60
2023-04-21T20:03:41.836Z,19.30
2023-04-21T20:06:12.627Z,19.40
2023-04-21T20:08:42.427Z,20.30
2023-04-21T20:11:12.098Z,15.70
2023-04-21T20:13:41.382Z,25.50
2023-04-21T20:16:11.297Z,20.60
2023-04-21T20:18:41.521Z,20.60
2023-04-21T20:21:11.366Z,18.90
2023-04-21T20:23:40.792Z,21.90
2023-04-21T20:26:10.275Z,20.80
2023-04-21T20:28:44.790Z,18.70
2023-04-21T20:31:18.737Z,16.10
2023-04-21T20:33:48.672Z,22.60
2023-04-21T20:36:24.620Z,17.00
2023-04-21T20:39:02.183Z,17.20
2023-04-21T20:42:13.105Z,13.60
2023-04-21T20:44:43.380Z,13.30
2023-04-21T20:47:16.985Z,18.60
2023-04-21T20:49:47.157Z,15.90
2023-04-21T20:52:18.006Z,14.40
2023-04-21T20:54:47.375Z,15.80
2023-04-21T20:57:17.352Z,13.60
2023-04-21T20:59:57.648Z,14.60
2023-04-21T21:02:31.351Z,12.60
2023-04-21T21:05:04.340Z,18.40
2023-04-21T21:07:34.249Z,14.30
2023-04-21T21:10:10.862Z,20.20
2023-04-21T21:12:42.183Z,17.40
2023-04-21T21:15:13.562Z,14.90
2023-04-21T21:17:43.078Z,14.20
2023-04-21T21:20:12.981Z,15.60
2023-04-21T21:23:33.153Z,15.40
2023-04-21T21:26:02.797Z,14.80
2023-04-21T21:32:32.138Z,12.90
2023-04-21T21:35:11.373Z,15.10
2023-04-21T21:37:41.298Z,15.20
2023-04-21T21:40:14.177Z,10.90
2023-04-21T21:42:43.854Z,15.00
2023-04-21T21:45:21.534Z,18.30
2023-04-21T21:52:08.432Z,16.30
2023-04-21T21:53:17.465Z,13.80
2023-04-21T21:54:41.089Z,13.40
2023-04-21T21:57:21.085Z,13.70
2023-04-21T22:00:04.557Z,11.70
2023-04-21T22:02:36.806Z,14.40
2023-04-21T22:05:07.534Z,15.50
2023-04-21T22:07:40.342Z,22.40
2023-04-21T22:10:14.423Z,12.90
2023-04-21T22:12:45.413Z,11.20
2023-04-21T22:15:16.354Z,14.80
2023-04-21T22:17:48.565Z,13.20
2023-04-21T22:20:36.720Z,13.10
2023-04-21T22:23:11.841Z,20.20
2023-04-21T22:25:41.888Z,14.30
2023-04-21T22:28:11.583Z,13.20
2023-04-21T22:30:41.473Z,15.10
2023-04-21T22:33:13.811Z,17.60
2023-04-21T22:35:43.927Z,11.70
2023-04-21T22:38:16.980Z,13.70
2023-04-21T22:40:48.129Z,12.30
2023-04-21T22:43:18.585Z,13.70
2023-04-21T22:45:50.187Z,13.40
2023-04-21T22:48:25.683Z,13.00
2023-04-21T22:50:58.613Z,15.00
2023-04-21T22:53:34.336Z,13.60
2023-04-21T22:56:08.029Z,15.10
2023-04-21T22:58:37.587Z,13.40
2023-04-21T23:01:13.291Z,12.40
2023-04-21T23:03:43.392Z,10.70
2023-04-21T23:20:57.697Z,13.60
2023-04-21T23:23:27.206Z,11.90
2023-04-21T23:25:56.808Z,19.10
2023-04-21T23:28:27.185Z,11.70
2023-04-21T23:30:56.676Z,15.00
2023-04-21T23:33:29.869Z,16.30
2023-04-21T23:36:03.279Z,13.20
2023-04-21T23:38:33.914Z,14.20
2023-04-21T23:41:06.278Z,13.50
2023-04-21T23:43:42.545Z,14.30
2023-04-21T23:46:12.846Z,16.70
2023-04-21T23:48:42.853Z,15.40
2023-04-21T23:51:18.788Z,11.50
2023-04-21T23:53:49.761Z,14.90
2023-04-21T23:56:24.060Z,11.20
2023-04-21T23:58:54.787Z,10.80
